createdAt,value
2023-07-31T00:00:15.070Z,94857.00
2023-07-31T00:01:15.156Z,94855.00
2023-07-31T00:02:15.067Z,94853.00
2023-07-31T00:03:15.128Z,94853.00
2023-07-31T00:04:15.054Z,94855.00
2023-07-31T00:05:15.046Z,94851.00
2023-07-31T00:06:15.022Z,94851.00
2023-07-31T00:07:15.023Z,94853.00
2023-07-31T00:08:15.033Z,94853.00
2023-07-31T00:09:15.019Z,94855.00
2023-07-31T00:10:15.003Z,94857.00
2023-07-31T00:11:14.990Z,94857.00
2023-07-31T00:12:14.984Z,94857.00
2023-07-31T00:13:14.997Z,94861.00
2023-07-31T00:14:14.958Z,94861.00
2023-07-31T00:15:14.966Z,94863.00
2023-07-31T00:16:15.058Z,94865.00
2023-07-31T00:17:14.965Z,94863.00
2023-07-31T00:18:14.998Z,94863.00
2023-07-31T00:19:15.065Z,94865.00
2023-07-31T00:20:15.136Z,94869.00
2023-07-31T00:21:15.240Z,94871.00
2023-07-31T00:22:15.272Z,94871.00
2023-07-31T00:23:15.316Z,94873.00
2023-07-31T00:24:15.381Z,94873.00
2023-07-31T00:25:15.458Z,94873.00
2023-07-31T00:26:15.516Z,94875.00
2023-07-31T00:27:15.583Z,94879.00
2023-07-31T00:28:15.724Z,94877.00
2023-07-31T00:29:15.704Z,94877.00
2023-07-31T00:30:15.764Z,94877.00
2023-07-31T00:31:15.865Z,94879.00
2023-07-31T00:32:15.902Z,94881.00
2023-07-31T00:33:16.000Z,94879.00
2023-07-31T00:34:16.021Z,94882.00
2023-07-31T00:35:16.091Z,94882.00
2023-07-31T00:36:16.164Z,94884.00
2023-07-31T00:37:16.212Z,94879.00
2023-07-31T00:38:16.259Z,94881.00
2023-07-31T00:39:16.327Z,94881.00
2023-07-31T00:40:16.390Z,94881.00
2023-07-31T00:41:16.442Z,94881.00
2023-07-31T00:42:16.505Z,94881.00
2023-07-31T00:43:16.586Z,94879.00
2023-07-31T00:44:16.654Z,94877.00
2023-07-31T00:45:16.726Z,94875.00
2023-07-31T00:46:16.778Z,94879.00
2023-07-31T00:47:16.853Z,94877.00
2023-07-31T00:48:16.883Z,94879.00
2023-07-31T00:49:17.036Z,94879.00
2023-07-31T00:50:17.002Z,94879.00
2023-07-31T00:51:17.068Z,94882.00
2023-07-31T00:52:17.137Z,94877.00
2023-07-31T00:53:17.175Z,94881.00
2023-07-31T00:54:17.248Z,94877.00
2023-07-31T00:55:17.288Z,94879.00
2023-07-31T00:56:17.368Z,94873.00
2023-07-31T00:57:17.416Z,94871.00
2023-07-31T00:58:17.473Z,94869.00
2023-07-31T00:59:17.528Z,94869.00
2023-07-31T01:00:17.588Z,94871.00
2023-07-31T01:01:17.670Z,94871.00
2023-07-31T01:02:17.807Z,94875.00
2023-07-31T01:03:17.796Z,94875.00
2023-07-31T01:04:17.820Z,94877.00
2023-07-31T01:05:17.895Z,94877.00
2023-07-31T01:06:17.944Z,94875.00
2023-07-31T01:07:18.006Z,94877.00
2023-07-31T01:08:18.074Z,94875.00
2023-07-31T01:09:18.158Z,94877.00
2023-07-31T01:10:18.312Z,94877.00
2023-07-31T01:11:18.297Z,94879.00
2023-07-31T01:12:18.342Z,94879.00
2023-07-31T01:13:18.390Z,94881.00
2023-07-31T01:14:18.460Z,94881.00
2023-07-31T01:15:18.489Z,94879.00
2023-07-31T01:16:18.598Z,94881.00
2023-07-31T01:17:18.800Z,94882.00
2023-07-31T01:18:18.679Z,94879.00
2023-07-31T01:19:18.746Z,94881.00
2023-07-31T01:20:18.844Z,94879.00
2023-07-31T01:21:18.866Z,94881.00
2023-07-31T01:22:18.942Z,94877.00
2023-07-31T01:23:18.992Z,94877.00
2023-07-31T01:24:19.040Z,94877.00
2023-07-31T01:25:19.113Z,94879.00
2023-07-31T01:26:19.181Z,94875.00
2023-07-31T01:27:19.248Z,94871.00
2023-07-31T01:28:19.408Z,94867.00
2023-07-31T01:29:19.357Z,94863.00
2023-07-31T01:30:19.421Z,94863.00
2023-07-31T01:31:19.549Z,94861.00
2023-07-31T01:32:19.618Z,94861.00
2023-07-31T01:33:19.603Z,94863.00
2023-07-31T01:34:19.666Z,94861.00
2023-07-31T01:35:19.740Z,94863.00
2023-07-31T01:36:19.804Z,94861.00
2023-07-31T01:37:19.878Z,94863.00
2023-07-31T01:38:19.909Z,94863.00
2023-07-31T01:39:19.982Z,94863.00
2023-07-31T01:40:20.028Z,94865.00
2023-07-31T01:41:20.096Z,94867.00
2023-07-31T01:42:20.162Z,94867.00
2023-07-31T01:43:20.218Z,94867.00
2023-07-31T01:44:20.287Z,94867.00
2023-07-31T01:45:20.328Z,94861.00
2023-07-31T01:46:20.410Z,94867.00
2023-07-31T01:47:20.548Z,94859.00
2023-07-31T01:48:20.471Z,94863.00
2023-07-31T01:49:20.519Z,94863.00
2023-07-31T01:50:20.565Z,94855.00
2023-07-31T01:51:20.614Z,94853.00
2023-07-31T01:52:20.648Z,94853.00
2023-07-31T01:53:20.686Z,94859.00
2023-07-31T01:54:20.739Z,94855.00
2023-07-31T01:55:20.772Z,94853.00
2023-07-31T01:56:20.825Z,94855.00
2023-07-31T01:57:20.895Z,94855.00
2023-07-31T01:58:20.940Z,94861.00
2023-07-31T01:59:21.004Z,94857.00
2023-07-31T02:00:21.069Z,94855.00
2023-07-31T02:01:21.210Z,94859.00
2023-07-31T02:02:21.264Z,94861.00
2023-07-31T02:03:21.375Z,94859.00
2023-07-31T02:04:21.316Z,94859.00
2023-07-31T02:05:21.368Z,94857.00
2023-07-31T02:06:21.412Z,94855.00
2023-07-31T02:07:21.481Z,94855.00
2023-07-31T02:08:21.554Z,94851.00
2023-07-31T02:09:21.624Z,94851.00
2023-07-31T02:10:21.670Z,94849.00
2023-07-31T02:11:21.740Z,94849.00
2023-07-31T02:12:21.810Z,94847.00
2023-07-31T02:13:21.868Z,94849.00
2023-07-31T02:14:21.905Z,94847.00
2023-07-31T02:15:21.961Z,94849.00
2023-07-31T02:16:22.037Z,94849.00
2023-07-31T02:17:22.062Z,94847.00
2023-07-31T02:18:22.103Z,94845.00
2023-07-31T02:19:22.153Z,94843.00
2023-07-31T02:20:22.192Z,94841.00
2023-07-31T02:21:22.258Z,94839.00
2023-07-31T02:22:22.303Z,94837.00
2023-07-31T02:23:22.373Z,94835.00
2023-07-31T02:24:22.406Z,94837.00
2023-07-31T02:25:22.451Z,94839.00
2023-07-31T02:26:22.508Z,94837.00
2023-07-31T02:27:22.582Z,94837.00
2023-07-31T02:28:22.646Z,94837.00
2023-07-31T02:29:22.678Z,94837.00
2023-07-31T02:30:22.730Z,94839.00
2023-07-31T02:31:23.478Z,94835.00
2023-07-31T02:32:22.873Z,94837.00
2023-07-31T02:33:22.929Z,94835.00
2023-07-31T02:34:22.962Z,94832.00
2023-07-31T02:35:23.042Z,94832.00
2023-07-31T02:36:23.108Z,94832.00
2023-07-31T02:37:23.172Z,94834.00
2023-07-31T02:38:23.253Z,94834.00
2023-07-31T02:39:23.271Z,94834.00
2023-07-31T02:40:23.315Z,94835.00
2023-07-31T02:41:23.354Z,94835.00
2023-07-31T02:42:23.411Z,94837.00
2023-07-31T02:43:23.449Z,94837.00
2023-07-31T02:44:23.492Z,94841.00
2023-07-31T02:45:23.535Z,94839.00
2023-07-31T02:46:23.788Z,94841.00
2023-07-31T02:47:23.684Z,94841.00
2023-07-31T02:48:23.694Z,94837.00
2023-07-31T02:49:23.741Z,94837.00
2023-07-31T02:50:23.793Z,94835.00
2023-07-31T02:51:23.846Z,94837.00
2023-07-31T02:52:23.891Z,94835.00
2023-07-31T02:53:23.943Z,94835.00
2023-07-31T02:54:23.979Z,94834.00
2023-07-31T02:55:24.004Z,94832.00
2023-07-31T02:56:24.107Z,94832.00
2023-07-31T02:57:24.098Z,94832.00
2023-07-31T02:58:24.145Z,94834.00
2023-07-31T02:59:24.201Z,94834.00
2023-07-31T03:00:24.249Z,94835.00
2023-07-31T03:01:24.342Z,94835.00
2023-07-31T03:02:24.516Z,94834.00
2023-07-31T03:03:24.488Z,94834.00
2023-07-31T03:04:24.481Z,94835.00
2023-07-31T03:05:24.571Z,94835.00
2023-07-31T03:06:24.619Z,94834.00
2023-07-31T03:07:24.619Z,94837.00
2023-07-31T03:08:24.655Z,94839.00
2023-07-31T03:09:24.685Z,94837.00
2023-07-31T03:10:24.757Z,94837.00
2023-07-31T03:11:24.796Z,94837.00
2023-07-31T03:12:24.838Z,94839.00
2023-07-31T03:13:24.884Z,94835.00
2023-07-31T03:14:24.932Z,94837.00
2023-07-31T03:15:24.979Z,94835.00
2023-07-31T03:16:25.073Z,94835.00
2023-07-31T03:17:25.073Z,94834.00
2023-07-31T03:18:25.112Z,94832.00
2023-07-31T03:19:25.185Z,94832.00
2023-07-31T03:20:25.223Z,94832.00
2023-07-31T03:21:25.289Z,94832.00
2023-07-31T03:22:25.351Z,94834.00
2023-07-31T03:23:25.420Z,94832.00
2023-07-31T03:24:25.491Z,94832.00
2023-07-31T03:25:25.543Z,94834.00
2023-07-31T03:26:25.602Z,94835.00
2023-07-31T03:27:25.671Z,94835.00
2023-07-31T03:28:25.771Z,94835.00
2023-07-31T03:29:25.771Z,94837.00
2023-07-31T03:30:25.818Z,94837.00
2023-07-31T03:31:25.945Z,94841.00
2023-07-31T03:32:26.015Z,94843.00
2023-07-31T03:33:25.967Z,94843.00
2023-07-31T03:34:26.001Z,94843.00
2023-07-31T03:35:26.044Z,94845.00
2023-07-31T03:36:26.093Z,94847.00
2023-07-31T03:37:26.141Z,94847.00
2023-07-31T03:38:26.200Z,94849.00
2023-07-31T03:39:26.270Z,94851.00
2023-07-31T03:40:26.306Z,94851.00
2023-07-31T03:41:26.377Z,94853.00
2023-07-31T03:42:26.425Z,94849.00
2023-07-31T03:43:26.470Z,94851.00
2023-07-31T03:44:26.531Z,94847.00
2023-07-31T03:45:26.578Z,94845.00
2023-07-31T03:46:26.663Z,94847.00
2023-07-31T03:47:26.706Z,94847.00
2023-07-31T03:48:26.732Z,94851.00
2023-07-31T03:49:26.797Z,94853.00
2023-07-31T03:50:26.845Z,94855.00
2023-07-31T03:51:26.998Z,94853.00
2023-07-31T03:52:26.944Z,94853.00
2023-07-31T03:53:26.980Z,94855.00
2023-07-31T03:54:27.074Z,94849.00
2023-07-31T03:55:27.102Z,94849.00
2023-07-31T03:56:27.146Z,94849.00
2023-07-31T03:57:27.203Z,94851.00
2023-07-31T03:58:27.260Z,94851.00
2023-07-31T03:59:27.331Z,94849.00
2023-07-31T04:00:27.373Z,94849.00
2023-07-31T04:01:27.499Z,94847.00
2023-07-31T04:02:27.570Z,94847.00
2023-07-31T04:03:27.593Z,94847.00
2023-07-31T04:04:27.626Z,94849.00
2023-07-31T04:05:27.718Z,94845.00
2023-07-31T04:06:27.759Z,94847.00
2023-07-31T04:07:27.794Z,94847.00
2023-07-31T04:08:27.859Z,94847.00
2023-07-31T04:09:27.889Z,94847.00
2023-07-31T04:10:27.947Z,94849.00
2023-07-31T04:11:27.994Z,94847.00
2023-07-31T04:12:28.015Z,94847.00
2023-07-31T04:13:28.063Z,94847.00
2023-07-31T04:14:28.106Z,94845.00
2023-07-31T04:15:28.139Z,94847.00
2023-07-31T04:16:28.211Z,94847.00
2023-07-31T04:17:28.220Z,94849.00
2023-07-31T04:18:28.240Z,94849.00
2023-07-31T04:19:28.287Z,94847.00
2023-07-31T04:20:28.355Z,94843.00
2023-07-31T04:21:28.426Z,94849.00
2023-07-31T04:22:28.469Z,94847.00
2023-07-31T04:23:28.536Z,94847.00
2023-07-31T04:24:28.597Z,94843.00
2023-07-31T04:25:28.664Z,94845.00
2023-07-31T04:26:28.711Z,94841.00
2023-07-31T04:27:28.778Z,94843.00
2023-07-31T04:28:28.916Z,94841.00
2023-07-31T04:29:28.899Z,94843.00
2023-07-31T04:30:28.957Z,94843.00
2023-07-31T04:31:29.054Z,94841.00
2023-07-31T04:32:29.143Z,94837.00
2023-07-31T04:33:29.159Z,94841.00
2023-07-31T04:34:29.249Z,94841.00
2023-07-31T04:35:29.271Z,94839.00
2023-07-31T04:36:29.364Z,94839.00
2023-07-31T04:37:29.393Z,94837.00
2023-07-31T04:38:29.464Z,94839.00
2023-07-31T04:39:29.531Z,94839.00
2023-07-31T04:40:29.580Z,94839.00
2023-07-31T04:41:29.627Z,94839.00
2023-07-31T04:42:29.668Z,94835.00
2023-07-31T04:43:29.725Z,94837.00
2023-07-31T04:44:29.796Z,94835.00
2023-07-31T04:45:29.867Z,94835.00
2023-07-31T04:46:29.923Z,94835.00
2023-07-31T04:47:30.003Z,94835.00
2023-07-31T04:48:30.032Z,94834.00
2023-07-31T04:49:30.084Z,94835.00
2023-07-31T04:50:30.165Z,94834.00
2023-07-31T04:51:30.218Z,94835.00
2023-07-31T04:52:30.287Z,94835.00
2023-07-31T04:53:30.372Z,94834.00
2023-07-31T04:54:30.412Z,94835.00
2023-07-31T04:55:30.477Z,94835.00
2023-07-31T04:56:30.532Z,94837.00
2023-07-31T04:57:30.630Z,94837.00
2023-07-31T04:58:30.642Z,94835.00
2023-07-31T04:59:30.726Z,94839.00
2023-07-31T05:00:30.780Z,94839.00
2023-07-31T05:01:30.841Z,94839.00
2023-07-31T05:02:30.961Z,94841.00
2023-07-31T05:03:30.995Z,94839.00
2023-07-31T05:04:30.932Z,94837.00
2023-07-31T05:05:30.998Z,94839.00
2023-07-31T05:06:31.062Z,94837.00
2023-07-31T05:07:31.093Z,94835.00
2023-07-31T05:08:31.156Z,94839.00
2023-07-31T05:09:31.208Z,94839.00
2023-07-31T05:10:31.293Z,94843.00
2023-07-31T05:11:31.361Z,94839.00
2023-07-31T05:12:31.391Z,94839.00
2023-07-31T05:13:31.467Z,94839.00
2023-07-31T05:14:31.518Z,94841.00
2023-07-31T05:15:31.593Z,94841.00
2023-07-31T05:16:31.687Z,94839.00
2023-07-31T05:17:31.780Z,94841.00
2023-07-31T05:18:31.791Z,94841.00
2023-07-31T05:19:31.820Z,94845.00
2023-07-31T05:20:31.862Z,94845.00
2023-07-31T05:21:31.888Z,94849.00
2023-07-31T05:22:31.942Z,94849.00
2023-07-31T05:23:31.969Z,94849.00
2023-07-31T05:24:32.013Z,94851.00
2023-07-31T05:25:32.050Z,94851.00
2023-07-31T05:26:32.077Z,94853.00
2023-07-31T05:27:32.105Z,94851.00
2023-07-31T05:28:32.203Z,94853.00
2023-07-31T05:29:32.230Z,94851.00
2023-07-31T05:30:32.260Z,94855.00
2023-07-31T05:31:32.299Z,94853.00
2023-07-31T05:32:32.430Z,94853.00
2023-07-31T05:33:32.402Z,94855.00
2023-07-31T05:34:32.438Z,94855.00
2023-07-31T05:35:32.485Z,94855.00
2023-07-31T05:36:32.532Z,94859.00
2023-07-31T05:37:32.553Z,94857.00
2023-07-31T05:38:32.621Z,94857.00
2023-07-31T05:39:32.674Z,94859.00
2023-07-31T05:40:32.686Z,94859.00
2023-07-31T05:41:32.742Z,94861.00
2023-07-31T05:42:32.781Z,94861.00
2023-07-31T05:43:32.852Z,94859.00
2023-07-31T05:44:32.893Z,94859.00
2023-07-31T05:45:32.963Z,94863.00
2023-07-31T05:46:33.071Z,94859.00
2023-07-31T05:47:33.075Z,94857.00
2023-07-31T05:48:33.141Z,94859.00
2023-07-31T05:49:33.194Z,94857.00
2023-07-31T05:50:33.261Z,94857.00
2023-07-31T05:51:33.334Z,94857.00
2023-07-31T05:52:33.411Z,94855.00
2023-07-31T05:53:33.509Z,94853.00
2023-07-31T05:54:33.520Z,94853.00
2023-07-31T05:55:33.586Z,94853.00
2023-07-31T05:56:33.667Z,94851.00
2023-07-31T05:57:33.714Z,94851.00
2023-07-31T05:58:33.774Z,94851.00
2023-07-31T05:59:33.840Z,94851.00
2023-07-31T06:00:33.896Z,94847.00
2023-07-31T06:01:33.980Z,94845.00
2023-07-31T06:02:34.097Z,94843.00
2023-07-31T06:03:34.209Z,94845.00
2023-07-31T06:04:34.229Z,94843.00
2023-07-31T06:05:34.189Z,94841.00
2023-07-31T06:06:34.257Z,94841.00
2023-07-31T06:07:34.303Z,94837.00
2023-07-31T06:08:34.375Z,94835.00
2023-07-31T06:09:34.429Z,94835.00
2023-07-31T06:10:34.492Z,94834.00
2023-07-31T06:11:34.571Z,94834.00
2023-07-31T06:12:34.601Z,94834.00
2023-07-31T06:13:34.663Z,94832.00
2023-07-31T06:14:34.694Z,94828.00
2023-07-31T06:15:34.766Z,94828.00
2023-07-31T06:16:34.816Z,94826.00
2023-07-31T06:17:34.900Z,94826.00
2023-07-31T06:18:34.911Z,94824.00
2023-07-31T06:19:34.997Z,94824.00
2023-07-31T06:20:35.035Z,94826.00
2023-07-31T06:21:35.082Z,94824.00
2023-07-31T06:22:35.150Z,94830.00
2023-07-31T06:23:35.194Z,94830.00
2023-07-31T06:24:35.245Z,94828.00
2023-07-31T06:25:35.284Z,94826.00
2023-07-31T06:26:35.431Z,94828.00
2023-07-31T06:27:35.407Z,94828.00
2023-07-31T06:28:35.554Z,94830.00
2023-07-31T06:29:35.517Z,94830.00
2023-07-31T06:30:35.579Z,94830.00
2023-07-31T06:31:35.775Z,94830.00
2023-07-31T06:32:35.801Z,94832.00
2023-07-31T06:33:35.774Z,94832.00
2023-07-31T06:34:35.821Z,94834.00
2023-07-31T06:35:35.890Z,94835.00
2023-07-31T06:36:35.963Z,94835.00
2023-07-31T06:37:37.964Z,94835.00
2023-07-31T06:38:36.074Z,94839.00
2023-07-31T06:39:36.119Z,94837.00
2023-07-31T06:40:36.186Z,94835.00
2023-07-31T06:41:36.268Z,94834.00
2023-07-31T06:42:36.301Z,94834.00
2023-07-31T06:43:36.347Z,94832.00
2023-07-31T06:44:36.404Z,94830.00
2023-07-31T06:45:36.518Z,94828.00
2023-07-31T06:46:36.538Z,94828.00
2023-07-31T06:47:36.637Z,94824.00
2023-07-31T06:48:36.626Z,94818.00
2023-07-31T06:49:36.688Z,94822.00
2023-07-31T06:50:36.770Z,94820.00
2023-07-31T06:51:36.791Z,94818.00
2023-07-31T06:52:36.845Z,94818.00
2023-07-31T06:53:36.903Z,94816.00
2023-07-31T06:54:36.962Z,94816.00
2023-07-31T06:55:37.012Z,94814.00
2023-07-31T06:56:39.856Z,94814.00
2023-07-31T06:57:37.054Z,94816.00
2023-07-31T06:58:37.049Z,94814.00
2023-07-31T06:59:37.049Z,94812.00
2023-07-31T07:00:37.039Z,94812.00
2023-07-31T07:01:37.088Z,94812.00
2023-07-31T07:02:37.065Z,94808.00
2023-07-31T07:03:37.014Z,94806.00
2023-07-31T07:04:37.033Z,94804.00
2023-07-31T07:05:37.136Z,94806.00
2023-07-31T07:06:37.068Z,94806.00
2023-07-31T07:07:36.985Z,94802.00
2023-07-31T07:08:36.982Z,94804.00
2023-07-31T07:09:36.970Z,94796.00
2023-07-31T07:10:36.982Z,94796.00
2023-07-31T07:11:36.958Z,94794.00
2023-07-31T07:12:37.056Z,94790.00
2023-07-31T07:13:39.289Z,94790.00
2023-07-31T07:14:36.937Z,94788.00
2023-07-31T07:15:36.923Z,94790.00
2023-07-31T07:16:36.960Z,94790.00
2023-07-31T07:17:36.938Z,94788.00
2023-07-31T07:18:39.472Z,94788.00
2023-07-31T07:19:36.899Z,94790.00
2023-07-31T07:20:36.894Z,94790.00
2023-07-31T07:21:36.894Z,94788.00
2023-07-31T07:22:36.891Z,94786.00
2023-07-31T07:23:36.875Z,94786.00
2023-07-31T07:24:36.856Z,94792.00
2023-07-31T07:25:36.865Z,94790.00
2023-07-31T07:26:36.857Z,94792.00
2023-07-31T07:27:36.858Z,94792.00
2023-07-31T07:28:36.861Z,94792.00
2023-07-31T07:29:36.832Z,94792.00
2023-07-31T07:30:36.867Z,94788.00
2023-07-31T07:31:36.849Z,94782.00
2023-07-31T07:32:36.977Z,94782.00
2023-07-31T07:33:36.955Z,94779.00
2023-07-31T07:34:37.047Z,94779.00
2023-07-31T07:35:37.059Z,94780.00
2023-07-31T07:36:37.468Z,94786.00
2023-07-31T07:37:37.197Z,94786.00
2023-07-31T07:38:37.232Z,94786.00
2023-07-31T07:39:37.310Z,94784.00
2023-07-31T07:40:37.341Z,94784.00
2023-07-31T07:41:37.626Z,94782.00
2023-07-31T07:42:37.450Z,94780.00
2023-07-31T07:43:37.513Z,94782.00
2023-07-31T07:44:37.642Z,94782.00
2023-07-31T07:45:37.613Z,94779.00
2023-07-31T07:46:38.004Z,94779.00
2023-07-31T07:47:37.773Z,94784.00
2023-07-31T07:48:37.783Z,94779.00
2023-07-31T07:49:37.820Z,94779.00
2023-07-31T07:50:37.889Z,94777.00
2023-07-31T07:51:38.202Z,94780.00
2023-07-31T07:52:37.994Z,94780.00
2023-07-31T07:53:38.044Z,94777.00
2023-07-31T07:54:38.101Z,94775.00
2023-07-31T07:55:38.160Z,94773.00
2023-07-31T07:56:38.713Z,94775.00
2023-07-31T07:57:38.253Z,94771.00
2023-07-31T07:58:38.305Z,94775.00
2023-07-31T07:59:38.356Z,94777.00
2023-07-31T08:00:38.497Z,94775.00
2023-07-31T08:01:38.478Z,94777.00
2023-07-31T08:02:38.587Z,94775.00
2023-07-31T08:03:38.640Z,94777.00
2023-07-31T08:04:38.645Z,94775.00
2023-07-31T08:05:38.702Z,94777.00
2023-07-31T08:06:39.089Z,94773.00
2023-07-31T08:07:38.806Z,94771.00
2023-07-31T08:08:38.865Z,94771.00
2023-07-31T08:09:38.906Z,94767.00
2023-07-31T08:10:38.966Z,94769.00
2023-07-31T08:11:39.016Z,94767.00
2023-07-31T08:12:39.137Z,94765.00
2023-07-31T08:13:39.127Z,94763.00
2023-07-31T08:14:39.174Z,94761.00
2023-07-31T08:15:39.230Z,94761.00
2023-07-31T08:16:39.666Z,94755.00
2023-07-31T08:17:39.350Z,94755.00
2023-07-31T08:18:39.508Z,94755.00
2023-07-31T08:19:39.451Z,94755.00
2023-07-31T08:20:39.506Z,94749.00
2023-07-31T08:21:39.547Z,94749.00
2023-07-31T08:22:39.612Z,94747.00
2023-07-31T08:23:39.654Z,94745.00
2023-07-31T08:24:39.720Z,94745.00
2023-07-31T08:25:39.764Z,94749.00
2023-07-31T08:26:40.015Z,94749.00
2023-07-31T08:27:39.864Z,94747.00
2023-07-31T08:28:39.960Z,94745.00
2023-07-31T08:29:40.007Z,94745.00
2023-07-31T08:30:40.057Z,94741.00
2023-07-31T08:31:40.093Z,94741.00
2023-07-31T08:32:40.203Z,94739.00
2023-07-31T08:33:40.239Z,94737.00
2023-07-31T08:34:40.254Z,94732.00
2023-07-31T08:35:40.317Z,94728.00
2023-07-31T08:36:40.638Z,94724.00
2023-07-31T08:37:40.421Z,94720.00
2023-07-31T08:38:40.509Z,94720.00
2023-07-31T08:39:40.542Z,94720.00
2023-07-31T08:40:40.588Z,94722.00
2023-07-31T08:41:40.626Z,94724.00
2023-07-31T08:42:40.703Z,94724.00
2023-07-31T08:43:40.750Z,94726.00
2023-07-31T08:44:40.818Z,94726.00
2023-07-31T08:45:40.855Z,94724.00
2023-07-31T08:46:41.188Z,94724.00
2023-07-31T08:47:40.986Z,94722.00
2023-07-31T08:48:41.015Z,94724.00
2023-07-31T08:49:41.072Z,94724.00
2023-07-31T08:50:41.115Z,94722.00
2023-07-31T08:51:41.175Z,94724.00
2023-07-31T08:52:41.227Z,94722.00
2023-07-31T08:53:41.290Z,94722.00
2023-07-31T08:54:41.338Z,94716.00
2023-07-31T08:55:41.404Z,94716.00
2023-07-31T08:56:41.765Z,94714.00
2023-07-31T08:57:41.488Z,94712.00
2023-07-31T08:58:41.536Z,94712.00
2023-07-31T08:59:41.594Z,94708.00
2023-07-31T09:00:41.660Z,94706.00
2023-07-31T09:01:41.733Z,94704.00
2023-07-31T09:02:41.840Z,94700.00
2023-07-31T09:03:41.899Z,94698.00
2023-07-31T09:04:41.878Z,94694.00
2023-07-31T09:05:41.919Z,94694.00
2023-07-31T09:06:42.249Z,94686.00
2023-07-31T09:07:42.044Z,94688.00
2023-07-31T09:08:42.109Z,94683.00
2023-07-31T09:09:42.129Z,94686.00
2023-07-31T09:10:42.178Z,94683.00
2023-07-31T09:11:42.235Z,94686.00
2023-07-31T09:12:42.307Z,94685.00
2023-07-31T09:13:42.359Z,94683.00
2023-07-31T09:14:42.448Z,94683.00
2023-07-31T09:15:42.468Z,94681.00
2023-07-31T09:16:42.931Z,94681.00
2023-07-31T09:17:42.598Z,94681.00
2023-07-31T09:18:42.634Z,94681.00
2023-07-31T09:19:42.677Z,94681.00
2023-07-31T09:20:42.738Z,94679.00
2023-07-31T09:21:42.839Z,94675.00
2023-07-31T09:22:42.851Z,94675.00
2023-07-31T09:23:42.913Z,94673.00
2023-07-31T09:24:42.958Z,94677.00
2023-07-31T09:25:43.013Z,94679.00
2023-07-31T09:26:43.115Z,94681.00
2023-07-31T09:27:43.135Z,94677.00
2023-07-31T09:28:43.197Z,94681.00
2023-07-31T09:29:43.253Z,94677.00
2023-07-31T09:30:43.304Z,94675.00
2023-07-31T09:31:43.438Z,94677.00
2023-07-31T09:32:43.459Z,94675.00
2023-07-31T09:33:43.470Z,94675.00
2023-07-31T09:34:43.522Z,94675.00
2023-07-31T09:35:43.590Z,94675.00
2023-07-31T09:36:43.671Z,94675.00
2023-07-31T09:37:43.690Z,94673.00
2023-07-31T09:38:43.751Z,94673.00
2023-07-31T09:39:43.827Z,94671.00
2023-07-31T09:40:43.862Z,94673.00
2023-07-31T09:41:43.932Z,94671.00
2023-07-31T09:42:43.989Z,94673.00
2023-07-31T09:43:44.039Z,94669.00
2023-07-31T09:44:44.080Z,94667.00
2023-07-31T09:45:44.191Z,94661.00
2023-07-31T09:46:44.632Z,94657.00
2023-07-31T09:47:44.378Z,94655.00
2023-07-31T09:48:44.353Z,94651.00
2023-07-31T09:49:44.388Z,94651.00
2023-07-31T09:50:44.434Z,94649.00
2023-07-31T09:51:44.490Z,94647.00
2023-07-31T09:52:44.548Z,94645.00
2023-07-31T09:53:44.622Z,94647.00
2023-07-31T09:54:44.664Z,94645.00
2023-07-31T09:55:44.726Z,94643.00
2023-07-31T09:56:44.786Z,94641.00
2023-07-31T09:57:44.818Z,94639.00
2023-07-31T09:58:44.892Z,94632.00
2023-07-31T09:59:44.953Z,94628.00
2023-07-31T10:00:45.005Z,94628.00
2023-07-31T10:01:45.160Z,94624.00
2023-07-31T10:02:45.166Z,94624.00
2023-07-31T10:03:45.190Z,94626.00
2023-07-31T10:04:46.759Z,94624.00
2023-07-31T10:05:45.274Z,94624.00
2023-07-31T10:06:45.322Z,94622.00
2023-07-31T10:07:45.383Z,94618.00
2023-07-31T10:08:45.447Z,94612.00
2023-07-31T10:09:45.505Z,94608.00
2023-07-31T10:10:45.546Z,94604.00
2023-07-31T10:11:45.608Z,94598.00
2023-07-31T10:12:45.648Z,94598.00
2023-07-31T10:13:45.711Z,94594.00
2023-07-31T10:14:45.761Z,94594.00
2023-07-31T10:15:45.874Z,94588.00
2023-07-31T10:16:45.888Z,94586.00
2023-07-31T10:17:45.953Z,94585.00
2023-07-31T10:18:45.994Z,94583.00
2023-07-31T10:19:46.095Z,94581.00
2023-07-31T10:20:46.115Z,94585.00
2023-07-31T10:21:46.164Z,94583.00
2023-07-31T10:22:46.204Z,94581.00
2023-07-31T10:23:46.258Z,94581.00
2023-07-31T10:24:46.344Z,94579.00
2023-07-31T10:25:46.365Z,94577.00
2023-07-31T10:26:46.426Z,94575.00
2023-07-31T10:27:46.478Z,94571.00
2023-07-31T10:28:46.578Z,94567.00
2023-07-31T10:29:46.596Z,94567.00
2023-07-31T10:30:46.665Z,94565.00
2023-07-31T10:31:46.696Z,94561.00
2023-07-31T10:32:46.802Z,94557.00
2023-07-31T10:33:46.819Z,94557.00
2023-07-31T10:34:46.904Z,94553.00
2023-07-31T10:35:46.934Z,94553.00
2023-07-31T10:36:46.983Z,94549.00
2023-07-31T10:37:47.042Z,94547.00
2023-07-31T10:38:47.092Z,94547.00
2023-07-31T10:39:47.145Z,94543.00
2023-07-31T10:40:47.262Z,94541.00
2023-07-31T10:41:47.290Z,94539.00
2023-07-31T10:42:47.309Z,94539.00
2023-07-31T10:43:47.365Z,94541.00
2023-07-31T10:44:47.435Z,94538.00
2023-07-31T10:45:47.484Z,94536.00
2023-07-31T10:46:47.558Z,94536.00
2023-07-31T10:47:47.629Z,94538.00
2023-07-31T10:48:47.649Z,94538.00
2023-07-31T10:49:47.685Z,94539.00
2023-07-31T10:50:47.811Z,94538.00
2023-07-31T10:51:47.797Z,94536.00
2023-07-31T10:52:47.844Z,94536.00
2023-07-31T10:53:47.903Z,94534.00
2023-07-31T10:54:47.962Z,94536.00
2023-07-31T10:55:48.011Z,94534.00
2023-07-31T10:56:48.132Z,94532.00
2023-07-31T10:57:48.126Z,94528.00
2023-07-31T10:58:48.172Z,94528.00
2023-07-31T10:59:48.228Z,94528.00
2023-07-31T11:00:48.328Z,94526.00
2023-07-31T11:01:48.332Z,94524.00
2023-07-31T11:02:48.443Z,94524.00
2023-07-31T11:03:48.627Z,94526.00
2023-07-31T11:04:48.512Z,94526.00
2023-07-31T11:05:48.585Z,94524.00
2023-07-31T11:06:48.600Z,94522.00
2023-07-31T11:07:48.646Z,94526.00
2023-07-31T11:08:48.705Z,94520.00
2023-07-31T11:09:48.752Z,94516.00
2023-07-31T11:10:48.823Z,94518.00
2023-07-31T11:11:48.867Z,94516.00
2023-07-31T11:12:48.917Z,94512.00
2023-07-31T11:13:48.967Z,94512.00
2023-07-31T11:14:49.021Z,94512.00
2023-07-31T11:15:49.064Z,94512.00
2023-07-31T11:16:49.124Z,94512.00
2023-07-31T11:17:49.253Z,94508.00
2023-07-31T11:18:49.217Z,94506.00
2023-07-31T11:19:49.265Z,94502.00
2023-07-31T11:20:49.339Z,94498.00
2023-07-31T11:21:49.368Z,94498.00
2023-07-31T11:22:49.429Z,94496.00
2023-07-31T11:23:49.469Z,94491.00
2023-07-31T11:24:49.512Z,94489.00
2023-07-31T11:25:49.554Z,94487.00
2023-07-31T11:26:49.623Z,94481.00
2023-07-31T11:27:49.660Z,94477.00
2023-07-31T11:28:49.697Z,94477.00
2023-07-31T11:29:49.752Z,94471.00
2023-07-31T11:30:49.847Z,94469.00
2023-07-31T11:31:49.840Z,94467.00
2023-07-31T11:32:49.901Z,94469.00
2023-07-31T11:33:49.956Z,94465.00
2023-07-31T11:34:49.979Z,94467.00
2023-07-31T11:35:50.035Z,94465.00
2023-07-31T11:36:50.077Z,94467.00
2023-07-31T11:37:50.113Z,94465.00
2023-07-31T11:38:50.162Z,94461.00
2023-07-31T11:39:50.209Z,94457.00
2023-07-31T11:40:50.286Z,94457.00
2023-07-31T11:41:50.295Z,94451.00
2023-07-31T11:42:50.380Z,94449.00
2023-07-31T11:43:50.402Z,94445.00
2023-07-31T11:44:50.441Z,94439.00